Time;durP1;ratioP1;P1;durP2;ratioP2;P2;SDS_P1;SDS_P2;PMS_P1;PMS_P2;Temp;Humidity;BMP_temperature;BMP_pressure;BME280_temperature;BME280_humidity;BME280_pressure;Samples;Min_cycle;Max_cycle;Signal;HPM_P1;HPM_P2
2022/11/07 00:01:45;;;;;;;4.65;3.55;;;10.60;99.90;;;;;;5000273;28;20202;-64
2022/11/07 00:04:12;;;;;;;5.93;3.10;;;10.60;99.90;;;;;;5022776;28;20229;-64
2022/11/07 00:06:39;;;;;;;5.65;3.08;;;10.60;99.90;;;;;;5033806;28;20205;-63
2022/11/07 00:09:06;;;;;;;5.90;3.60;;;10.60;99.90;;;;;;5032957;28;20197;-64
2022/11/07 00:11:34;;;;;;;9.98;3.70;;;10.60;99.90;;;;;;5020886;28;20573;-64
2022/11/07 00:14:01;;;;;;;4.15;3.33;;;10.60;99.90;;;;;;5022292;28;20216;-63
2022/11/07 00:16:28;;;;;;;6.25;3.65;;;10.60;99.90;;;;;;5003707;28;21260;-64
2022/11/07 00:18:55;;;;;;;9.65;3.47;;;10.70;99.90;;;;;;5020541;28;20221;-63
2022/11/07 00:21:22;;;;;;;4.75;3.42;;;10.80;99.90;;;;;;5027663;28;21034;-64
2022/11/07 00:23:49;;;;;;;5.03;3.22;;;10.70;99.90;;;;;;5032310;28;20221;-64
2022/11/07 00:26:15;;;;;;;5.25;3.58;;;10.70;99.90;;;;;;5027708;28;20223;-64
2022/11/07 00:28:44;;;;;;;4.13;3.45;;;10.70;99.90;;;;;;5016452;28;20228;-64
2022/11/07 00:31:13;;;;;;;6.78;3.40;;;10.70;99.90;;;;;;5014965;28;23757;-64
2022/11/07 00:33:40;;;;;;;5.70;3.30;;;10.70;99.90;;;;;;4989464;28;20201;-65
2022/11/07 00:36:08;;;;;;;5.72;3.40;;;10.70;99.90;;;;;;5020907;28;20236;-64
2022/11/07 00:38:35;;;;;;;4.80;3.13;;;10.70;99.90;;;;;;5032913;28;20198;-64
2022/11/07 00:41:04;;;;;;;4.18;3.38;;;10.70;99.90;;;;;;5017433;28;20201;-64
2022/11/07 00:43:31;;;;;;;5.45;3.20;;;10.70;99.90;;;;;;5029476;28;20217;-64
2022/11/07 00:46:01;;;;;;;5.78;3.17;;;10.70;99.90;;;;;;5024173;28;20235;-64
2022/11/07 00:48:29;;;;;;;7.53;3.13;;;10.80;99.90;;;;;;4999223;28;20213;-64
2022/11/07 00:50:56;;;;;;;4.55;2.72;;;10.80;99.90;;;;;;5008293;28;20677;-64
2022/11/07 00:53:23;;;;;;;4.70;2.92;;;10.80;99.90;;;;;;5029672;28;20198;-64
2022/11/07 00:55:50;;;;;;;4.05;2.55;;;10.80;99.90;;;;;;5028729;28;20233;-64
2022/11/07 00:58:17;;;;;;;4.53;2.70;;;10.80;99.90;;;;;;5025893;28;20634;-64
2022/11/07 01:00:44;;;;;;;3.25;2.40;;;10.80;99.90;;;;;;5021128;28;20292;-64
2022/11/07 01:05:58;;;;;;;4.13;2.88;;;10.80;99.90;;;;;;5016570;28;20212;-65
2022/11/07 01:08:25;;;;;;;5.00;2.30;;;10.80;99.90;;;;;;5023223;28;20990;-64
2022/11/07 01:10:52;;;;;;;6.13;2.40;;;10.90;99.90;;;;;;5033143;28;20190;-64
2022/11/07 01:13:18;;;;;;;4.80;2.63;;;10.90;99.90;;;;;;5030570;28;20209;-64
2022/11/07 01:15:45;;;;;;;6.93;2.60;;;10.90;99.90;;;;;;5024017;28;20243;-64
2022/11/07 01:18:14;;;;;;;5.00;2.47;;;10.90;99.90;;;;;;5027833;28;20652;-64
2022/11/07 01:20:41;;;;;;;3.88;2.30;;;10.90;99.90;;;;;;4990136;28;25051;-64
2022/11/07 01:23:08;;;;;;;4.40;2.38;;;11.00;99.90;;;;;;5016916;28;21191;-64
2022/11/07 01:25:37;;;;;;;3.25;2.35;;;11.00;99.90;;;;;;5028085;28;20565;-64
2022/11/07 01:28:04;;;;;;;3.97;2.40;;;11.00;99.90;;;;;;5024568;28;20275;-64
2022/11/07 01:30:31;;;;;;;5.72;2.47;;;11.00;99.90;;;;;;5030282;28;20193;-64
2022/11/07 01:32:59;;;;;;;3.42;2.13;;;11.00;99.90;;;;;;5023782;28;20215;-64
2022/11/07 01:35:27;;;;;;;4.82;2.42;;;11.00;99.90;;;;;;4995371;28;20201;-65
2022/11/07 01:37:54;;;;;;;7.90;2.33;;;11.00;99.90;;;;;;5028551;28;20209;-64
2022/11/07 01:40:21;;;;;;;3.72;2.22;;;11.10;99.90;;;;;;5030153;28;20797;-64
2022/11/07 01:42:48;;;;;;;5.70;2.55;;;11.10;99.90;;;;;;5028808;28;20224;-64
2022/11/07 01:45:21;;;;;;;3.95;2.10;;;11.10;99.90;;;;;;5030241;28;20205;-64
2022/11/07 01:47:48;;;;;;;4.63;2.10;;;11.10;99.90;;;;;;5024719;28;20201;-65
2022/11/07 01:50:16;;;;;;;9.23;2.50;;;11.10;99.90;;;;;;5029563;28;20917;-64
2022/11/07 01:52:47;;;;;;;5.15;1.98;;;11.10;99.90;;;;;;4991239;28;20214;-64
2022/11/07 01:55:17;;;;;;;4.50;2.13;;;11.10;99.90;;;;;;5029737;28;21009;-64
2022/11/07 01:57:49;;;;;;;6.03;1.90;;;11.20;99.90;;;;;;5027759;28;20367;-64
2022/11/07 02:00:19;;;;;;;6.13;2.30;;;11.20;99.90;;;;;;5031267;28;20205;-64
2022/11/07 02:02:48;;;;;;;5.82;2.20;;;11.20;99.90;;;;;;5029115;28;20204;-64
2022/11/07 02:05:20;;;;;;;3.63;2.40;;;11.20;99.90;;;;;;5034816;28;20213;-64
2022/11/07 02:07:48;;;;;;;3.72;2.08;;;11.20;99.90;;;;;;4990071;28;20209;-64
2022/11/07 02:10:16;;;;;;;2.60;1.90;;;11.20;99.90;;;;;;5029331;28;20206;-64
2022/11/07 02:12:43;;;;;;;4.10;2.00;;;11.30;99.90;;;;;;5024895;28;20198;-65
2022/11/07 02:15:11;;;;;;;5.80;2.03;;;11.30;99.90;;;;;;5018525;28;20201;-64
2022/11/07 02:17:38;;;;;;;5.15;1.90;;;11.30;99.90;;;;;;5029154;28;20804;-64
2022/11/07 02:20:06;;;;;;;7.10;2.17;;;11.30;99.90;;;;;;5027538;28;20244;-64
2022/11/07 02:22:40;;;;;;;3.90;2.25;;;11.20;99.90;;;;;;4997702;28;20206;-64
2022/11/07 02:25:11;;;;;;;5.03;2.10;;;11.30;99.90;;;;;;5017867;28;20212;-64
2022/11/07 02:27:40;;;;;;;5.18;2.38;;;11.30;99.90;;;;;;5016776;28;20209;-64
2022/11/07 02:30:10;;;;;;;3.63;1.70;;;11.30;99.90;;;;;;5031125;28;21117;-64
2022/11/07 02:32:37;;;;;;;4.85;2.25;;;11.30;99.90;;;;;;5020564;28;20626;-64
2022/11/07 02:35:06;;;;;;;6.00;2.15;;;11.30;99.90;;;;;;5021769;28;20380;-64
2022/11/07 02:37:38;;;;;;;4.20;1.65;;;11.30;99.90;;;;;;5032607;28;20251;-64
2022/11/07 02:40:10;;;;;;;4.70;1.85;;;11.30;99.90;;;;;;4986720;28;20296;-64
2022/11/07 02:42:44;;;;;;;3.38;1.92;;;11.30;99.90;;;;;;5034350;28;20248;-64
2022/11/07 02:45:14;;;;;;;4.32;1.98;;;11.30;99.90;;;;;;5022921;28;20224;-65
2022/11/07 02:47:41;;;;;;;4.63;2.28;;;11.30;99.90;;;;;;5032433;28;20209;-65
2022/11/07 02:50:09;;;;;;;3.75;1.83;;;11.30;99.90;;;;;;5029782;28;20198;-64
2022/11/07 02:52:36;;;;;;;4.85;2.05;;;11.30;99.90;;;;;;5032941;28;20193;-64
2022/11/07 02:55:03;;;;;;;5.75;1.88;;;11.30;99.90;;;;;;4986324;28;20233;-65
2022/11/07 02:57:31;;;;;;;3.33;1.45;;;11.30;99.90;;;;;;5018962;28;20202;-64
2022/11/07 02:59:58;;;;;;;6.65;1.92;;;11.30;99.90;;;;;;5029702;28;20201;-65
2022/11/07 03:02:25;;;;;;;4.00;2.00;;;11.40;99.90;;;;;;5018169;28;20202;-65
2022/11/07 03:04:52;;;;;;;5.28;2.00;;;11.40;99.90;;;;;;5027074;28;21379;-65
2022/11/07 03:07:19;;;;;;;6.78;2.30;;;11.40;99.90;;;;;;5034054;28;20606;-65
2022/11/07 03:09:45;;;;;;;6.20;2.50;;;11.40;99.90;;;;;;4987734;28;20205;-66
2022/11/07 03:12:12;;;;;;;5.82;2.22;;;11.40;99.90;;;;;;5029372;28;20267;-65
2022/11/07 03:14:40;;;;;;;9.45;2.15;;;11.40;99.90;;;;;;5031190;28;20205;-64
2022/11/07 03:17:07;;;;;;;3.70;1.80;;;11.40;99.90;;;;;;5018448;28;20231;-65
2022/11/07 03:19:34;;;;;;;7.15;2.10;;;11.40;99.90;;;;;;5025595;28;20715;-64
2022/11/07 03:22:01;;;;;;;3.40;1.60;;;11.40;99.90;;;;;;5031168;28;20198;-65
2022/11/07 03:24:31;;;;;;;3.92;2.03;;;11.40;99.90;;;;;;5001520;28;20247;-64
2022/11/07 03:26:57;;;;;;;6.35;2.10;;;11.40;99.90;;;;;;5008809;28;20209;-65
2022/11/07 03:29:24;;;;;;;3.20;1.67;;;11.40;99.90;;;;;;5031082;28;20658;-65
2022/11/07 03:31:53;;;;;;;2.55;1.60;;;11.50;99.90;;;;;;5016377;28;20228;-65
2022/11/07 03:34:19;;;;;;;5.15;2.03;;;11.40;99.90;;;;;;5033497;28;20197;-65
2022/11/07 03:36:46;;;;;;;9.10;2.10;;;11.40;99.90;;;;;;5030730;28;20198;-64
2022/11/07 03:39:13;;;;;;;7.18;2.22;;;11.40;99.90;;;;;;5028334;28;20202;-65
2022/11/07 03:41:39;;;;;;;5.68;2.20;;;11.40;99.90;;;;;;5001486;28;20217;-64
2022/11/07 03:44:06;;;;;;;3.13;1.88;;;11.40;99.90;;;;;;5029800;28;20237;-64
2022/11/07 03:46:33;;;;;;;5.68;1.70;;;11.40;99.90;;;;;;5030947;28;20221;-64
2022/11/07 03:49:01;;;;;;;5.25;1.77;;;11.40;99.90;;;;;;5016616;28;20210;-65
2022/11/07 03:51:28;;;;;;;5.93;1.83;;;11.50;99.90;;;;;;5027322;28;20212;-65
2022/11/07 03:53:55;;;;;;;5.35;2.00;;;11.40;99.90;;;;;;5015235;28;20208;-65
2022/11/07 03:56:21;;;;;;;7.53;1.95;;;11.50;99.90;;;;;;5001710;28;20209;-65
2022/11/07 03:58:48;;;;;;;8.20;2.20;;;11.40;99.90;;;;;;5022607;28;20220;-65
2022/11/07 04:01:15;;;;;;;5.72;1.95;;;11.40;99.90;;;;;;5025653;28;20217;-65
2022/11/07 04:03:42;;;;;;;4.15;2.15;;;11.50;99.90;;;;;;5016669;28;20714;-64
2022/11/07 04:06:10;;;;;;;4.05;1.88;;;11.40;99.90;;;;;;5033178;28;20206;-64
2022/11/07 04:08:37;;;;;;;3.72;1.40;;;11.40;99.90;;;;;;5031733;28;20212;-64
2022/11/07 04:11:04;;;;;;;5.63;1.80;;;11.50;99.90;;;;;;4995323;28;20218;-65
2022/11/07 04:19:09;;;;;;;2.47;2.05;;;11.40;99.90;;;;;;5003621;28;20196;-65
2022/11/07 04:21:38;;;;;;;4.43;1.92;;;11.40;99.90;;;;;;5026362;28;20228;-65
2022/11/07 04:24:05;;;;;;;6.07;2.03;;;11.40;99.90;;;;;;5031186;28;20237;-65
2022/11/07 04:29:16;;;;;;;4.57;1.70;;;11.50;99.90;;;;;;5028459;28;20267;-65
2022/11/07 04:31:43;;;;;;;4.20;1.80;;;11.50;99.90;;;;;;5007132;28;20200;-65
2022/11/07 04:34:10;;;;;;;10.00;2.17;;;11.50;99.90;;;;;;5013667;28;20205;-64
2022/11/07 04:36:38;;;;;;;3.92;1.77;;;11.50;99.90;;;;;;5026992;28;20223;-64
2022/11/07 04:39:04;;;;;;;3.42;1.90;;;11.50;99.90;;;;;;5030950;28;20198;-65
2022/11/07 04:41:31;;;;;;;6.10;2.10;;;11.50;99.90;;;;;;4998262;28;20781;-64
2022/11/07 04:43:58;;;;;;;7.97;2.42;;;11.50;99.90;;;;;;5018926;28;20792;-64
2022/11/07 04:46:25;;;;;;;5.50;2.00;;;11.40;99.90;;;;;;4988157;28;20252;-64
2022/11/07 04:48:52;;;;;;;3.47;1.83;;;11.50;99.90;;;;;;5011073;28;20205;-65
2022/11/07 04:51:21;;;;;;;4.10;2.20;;;11.50;99.90;;;;;;5029173;28;20205;-64
2022/11/07 04:53:50;;;;;;;5.30;1.77;;;11.50;99.90;;;;;;5020888;28;20240;-65
2022/11/07 04:56:17;;;;;;;6.05;2.00;;;11.50;99.90;;;;;;5029355;28;20197;-63
2022/11/07 04:58:44;;;;;;;8.07;1.90;;;11.50;99.90;;;;;;5005038;28;20216;-65
2022/11/07 05:01:10;;;;;;;7.88;2.22;;;11.50;99.90;;;;;;5013249;28;20216;-64
2022/11/07 05:03:37;;;;;;;7.82;1.90;;;11.50;99.90;;;;;;4995778;28;20228;-66
2022/11/07 05:06:04;;;;;;;3.88;1.67;;;11.50;99.90;;;;;;5014186;28;20221;-65
2022/11/07 05:08:31;;;;;;;8.30;1.90;;;11.40;99.90;;;;;;5007826;28;20221;-65
2022/11/07 05:10:59;;;;;;;3.75;1.60;;;11.40;99.90;;;;;;5023673;28;20216;-65
2022/11/07 05:13:26;;;;;;;6.75;2.55;;;11.50;99.90;;;;;;4968904;28;20205;-65
2022/11/07 05:15:53;;;;;;;11.80;2.33;;;11.50;99.90;;;;;;5020593;28;21572;-66
2022/11/07 05:18:23;;;;;;;2.45;1.58;;;11.50;99.90;;;;;;4997654;28;20256;-65
2022/11/07 05:20:50;;;;;;;7.10;2.15;;;11.50;99.90;;;;;;5001104;28;20237;-65
2022/11/07 05:23:17;;;;;;;8.13;2.72;;;11.50;99.90;;;;;;5008087;28;20218;-65
2022/11/07 05:25:45;;;;;;;6.68;2.17;;;11.50;99.90;;;;;;5020390;28;20921;-65
2022/11/07 05:28:16;;;;;;;6.68;2.60;;;11.50;99.90;;;;;;4984910;28;20221;-66
2022/11/07 05:30:44;;;;;;;10.45;2.40;;;11.50;99.90;;;;;;5007260;28;20232;-64
2022/11/07 05:35:44;;;;;;;3.70;1.92;;;11.50;99.90;;;;;;5024432;22;20221;-65
2022/11/07 05:38:11;;;;;;;8.02;2.10;;;11.50;99.90;;;;;;5033967;28;20605;-65
2022/11/07 05:40:39;;;;;;;4.90;1.88;;;11.60;99.90;;;;;;5011961;28;20221;-65
2022/11/07 05:43:07;;;;;;;6.72;2.58;;;11.60;99.90;;;;;;5003604;28;20235;-65
2022/11/07 05:45:36;;;;;;;11.63;2.00;;;11.60;99.90;;;;;;5007626;28;20263;-65
2022/11/07 05:48:06;;;;;;;5.32;2.10;;;11.60;99.90;;;;;;5025895;28;20301;-65
2022/11/07 05:50:33;;;;;;;11.07;1.90;;;11.50;99.90;;;;;;5012366;28;20240;-66
2022/11/07 05:52:59;;;;;;;5.30;1.92;;;11.50;99.90;;;;;;5031442;28;20231;-64
2022/11/07 05:55:26;;;;;;;11.73;2.08;;;11.50;99.90;;;;;;5027166;28;20224;-65
2022/11/07 05:57:54;;;;;;;3.92;1.67;;;11.50;99.90;;;;;;5025269;28;20224;-64
2022/11/07 06:00:21;;;;;;;5.70;2.33;;;11.40;99.90;;;;;;4985394;28;20610;-64
2022/11/07 06:02:56;;;;;;;5.25;2.08;;;11.40;99.90;;;;;;5014179;28;20224;-65
2022/11/07 06:05:23;;;;;;;5.75;2.15;;;11.50;99.90;;;;;;5015291;28;20224;-65
2022/11/07 06:07:50;;;;;;;8.30;1.90;;;11.50;99.90;;;;;;5017000;28;20227;-65
2022/11/07 06:10:17;;;;;;;7.95;2.10;;;11.40;99.90;;;;;;5016346;28;20229;-64
2022/11/07 06:12:44;;;;;;;3.75;1.95;;;11.40;99.90;;;;;;5028748;28;20217;-64
2022/11/07 06:15:11;;;;;;;6.78;1.60;;;11.40;99.90;;;;;;5001211;28;20228;-64
2022/11/07 06:17:38;;;;;;;4.60;2.22;;;11.40;99.90;;;;;;5043958;28;20678;-65
2022/11/07 06:20:08;;;;;;;6.03;2.08;;;11.40;99.90;;;;;;5036755;28;20216;-65
2022/11/07 06:22:35;;;;;;;4.88;1.52;;;11.40;99.90;;;;;;5032579;28;20661;-65
2022/11/07 06:25:03;;;;;;;5.78;2.55;;;11.40;99.90;;;;;;5043660;28;20263;-64
2022/11/07 06:27:30;;;;;;;5.97;1.80;;;11.40;99.90;;;;;;5039959;28;20227;-65
2022/11/07 06:29:57;;;;;;;4.50;1.73;;;11.40;99.90;;;;;;5025278;28;20214;-64
2022/11/07 06:32:24;;;;;;;5.03;1.80;;;11.40;99.90;;;;;;5042243;28;20209;-64
2022/11/07 06:34:51;;;;;;;6.18;2.35;;;11.40;99.90;;;;;;5036601;28;20225;-64
2022/11/07 06:37:19;;;;;;;5.13;2.05;;;11.40;99.90;;;;;;5040279;28;20685;-64
2022/11/07 06:39:46;;;;;;;5.53;1.63;;;11.40;99.90;;;;;;5050823;28;20205;-65
2022/11/07 06:42:12;;;;;;;4.55;2.08;;;11.40;99.90;;;;;;5040635;28;20215;-64
2022/11/07 06:44:39;;;;;;;6.28;1.98;;;11.40;99.90;;;;;;5045894;28;20235;-64
2022/11/07 06:47:06;;;;;;;5.03;2.00;;;11.40;99.90;;;;;;5012996;28;20209;-64
2022/11/07 06:49:33;;;;;;;8.20;2.80;;;11.40;99.90;;;;;;5050870;28;20216;-64
2022/11/07 06:52:00;;;;;;;7.15;2.20;;;11.50;99.90;;;;;;5030532;28;20212;-66
2022/11/07 06:54:28;;;;;;;10.40;2.30;;;11.50;99.90;;;;;;5041916;28;20212;-64
2022/11/07 06:56:55;;;;;;;7.78;2.35;;;11.50;99.90;;;;;;5042777;28;20205;-65
2022/11/07 06:59:21;;;;;;;10.30;2.30;;;11.50;99.90;;;;;;5046114;28;20212;-65
2022/11/07 07:01:49;;;;;;;8.45;2.30;;;11.50;99.90;;;;;;5013336;28;20231;-65
2022/11/07 07:04:16;;;;;;;9.13;2.10;;;11.50;99.90;;;;;;5043414;28;20204;-64
2022/11/07 07:06:44;;;;;;;7.57;2.00;;;11.50;99.90;;;;;;5013917;28;20213;-65
2022/11/07 07:09:11;;;;;;;6.07;1.88;;;11.40;99.90;;;;;;5028564;28;20216;-65
2022/11/07 07:11:41;;;;;;;7.68;2.28;;;11.40;99.90;;;;;;5031464;28;20287;-65
2022/11/07 07:14:08;;;;;;;4.78;1.60;;;11.40;99.90;;;;;;5035613;28;20205;-65
2022/11/07 07:16:35;;;;;;;3.83;1.67;;;11.40;99.90;;;;;;5016542;28;20209;-65
2022/11/07 07:19:02;;;;;;;6.43;2.25;;;11.40;99.90;;;;;;5048182;28;20197;-65
2022/11/07 07:21:29;;;;;;;4.47;2.00;;;11.50;99.90;;;;;;5020462;28;20312;-65
2022/11/07 07:23:56;;;;;;;8.57;1.63;;;11.50;99.90;;;;;;5029463;28;20225;-65
2022/11/07 07:26:23;;;;;;;7.45;2.17;;;11.50;99.90;;;;;;5020354;28;20224;-66
2022/11/07 07:28:51;;;;;;;6.18;2.00;;;11.50;99.90;;;;;;5035162;28;20972;-65
2022/11/07 07:31:23;;;;;;;8.68;1.75;;;11.50;99.90;;;;;;5026269;28;20204;-66
2022/11/07 07:33:50;;;;;;;8.23;2.13;;;11.50;99.90;;;;;;5024178;28;20235;-65
2022/11/07 07:36:17;;;;;;;5.55;1.60;;;11.50;99.90;;;;;;5028960;28;20201;-65
2022/11/07 07:38:44;;;;;;;6.47;2.20;;;11.50;99.90;;;;;;5020263;28;20212;-66
2022/11/07 07:41:11;;;;;;;5.88;2.17;;;11.50;99.90;;;;;;5028753;28;20574;-65
2022/11/07 07:43:38;;;;;;;10.27;2.60;;;11.50;99.90;;;;;;5028194;28;20235;-65
2022/11/07 07:46:07;;;;;;;11.93;2.60;;;11.60;99.90;;;;;;5044009;28;20228;-65
2022/11/07 07:48:34;;;;;;;6.30;1.80;;;11.70;99.90;;;;;;5000784;28;20213;-66
2022/11/07 07:51:01;;;;;;;6.50;2.10;;;11.70;99.90;;;;;;5043480;28;20202;-65
2022/11/07 07:53:28;;;;;;;9.95;2.35;;;11.70;99.90;;;;;;5023604;28;20592;-66
2022/11/07 07:55:57;;;;;;;5.40;2.35;;;11.80;99.90;;;;;;5028543;28;20208;-66
2022/11/07 07:58:24;;;;;;;8.10;2.10;;;11.80;99.90;;;;;;5043757;28;20216;-65
2022/11/07 08:00:52;;;;;;;5.10;2.00;;;11.90;99.90;;;;;;5026981;28;20213;-66
2022/11/07 08:03:20;;;;;;;5.53;2.28;;;11.90;99.90;;;;;;5014527;28;20212;-65
2022/11/07 08:05:53;;;;;;;7.45;1.90;;;11.90;99.90;;;;;;5037867;28;20240;-65
2022/11/07 08:08:20;;;;;;;2.42;1.85;;;11.90;99.90;;;;;;5029054;28;20213;-66
2022/11/07 08:10:52;;;;;;;5.97;1.90;;;11.90;99.90;;;;;;5028486;28;20231;-65
2022/11/07 08:13:20;;;;;;;6.32;1.80;;;12.00;99.90;;;;;;5041070;28;20204;-66
2022/11/07 08:15:47;;;;;;;2.80;1.70;;;12.00;99.90;;;;;;5032405;28;20882;-65
2022/11/07 08:18:14;;;;;;;9.38;2.33;;;12.00;99.90;;;;;;5032279;28;20193;-66
2022/11/07 08:20:42;;;;;;;7.30;2.10;;;12.00;99.90;;;;;;5022741;28;20229;-65
2022/11/07 08:23:10;;;;;;;9.65;2.13;;;12.10;99.90;;;;;;5032201;28;20204;-66
2022/11/07 08:25:37;;;;;;;5.93;1.98;;;12.10;99.90;;;;;;5027406;28;20788;-66
2022/11/07 08:28:06;;;;;;;4.72;2.10;;;12.10;99.90;;;;;;5042762;28;20206;-65
2022/11/07 08:30:32;;;;;;;6.68;2.15;;;12.10;99.90;;;;;;5030037;28;20201;-66
2022/11/07 08:33:01;;;;;;;4.80;2.13;;;12.10;99.90;;;;;;5030958;28;20685;-66
2022/11/07 08:35:28;;;;;;;8.13;2.03;;;12.10;99.90;;;;;;5011805;28;20244;-65
2022/11/07 08:37:57;;;;;;;6.82;2.15;;;12.10;99.90;;;;;;5026738;28;20244;-65
2022/11/07 08:40:24;;;;;;;8.02;2.35;;;12.10;99.90;;;;;;5045211;28;20761;-66
2022/11/07 08:42:51;;;;;;;8.55;2.00;;;12.10;99.90;;;;;;5030897;28;20865;-66
2022/11/07 08:45:17;;;;;;;11.95;2.28;;;12.20;99.90;;;;;;5048871;28;20221;-65
2022/11/07 08:47:44;;;;;;;5.90;2.00;;;12.10;99.90;;;;;;5026773;28;20212;-66
2022/11/07 08:50:11;;;;;;;6.10;2.03;;;12.20;99.90;;;;;;5014004;28;20205;-65
2022/11/07 08:52:38;;;;;;;9.50;2.47;;;12.20;99.90;;;;;;5042070;28;20205;-66
2022/11/07 08:55:07;;;;;;;5.10;2.05;;;12.20;99.90;;;;;;5029475;28;20221;-66
2022/11/07 08:57:34;;;;;;;7.93;2.00;;;12.30;99.90;;;;;;5028188;28;20205;-65
2022/11/07 09:00:01;;;;;;;10.55;2.67;;;12.30;99.90;;;;;;5046481;28;20655;-65
2022/11/07 09:02:27;;;;;;;5.50;2.05;;;12.30;99.90;;;;;;5030206;28;20662;-66
2022/11/07 09:04:54;;;;;;;7.07;2.05;;;12.40;99.90;;;;;;5042409;28;20219;-66
2022/11/07 09:07:21;;;;;;;6.88;1.95;;;12.40;99.90;;;;;;5010823;28;20231;-66
2022/11/07 09:09:48;;;;;;;3.78;2.00;;;12.40;99.90;;;;;;5020536;28;20192;-66
2022/11/07 09:12:16;;;;;;;7.18;2.30;;;12.50;99.90;;;;;;5037716;28;20197;-66
2022/11/07 09:14:43;;;;;;;11.57;2.90;;;12.50;99.90;;;;;;5034846;28;20208;-66
2022/11/07 09:17:09;;;;;;;9.70;2.22;;;12.50;99.90;;;;;;5042401;28;20201;-65
2022/11/07 09:19:36;;;;;;;6.95;1.98;;;12.50;99.90;;;;;;5030785;28;20205;-66
2022/11/07 09:22:03;;;;;;;4.68;1.85;;;12.50;99.90;;;;;;5015203;28;20209;-66
2022/11/07 09:24:30;;;;;;;11.88;2.30;;;12.50;99.90;;;;;;5018350;28;20208;-66
2022/11/07 09:26:56;;;;;;;5.22;2.15;;;12.50;99.90;;;;;;5038341;28;20238;-66
2022/11/07 09:29:25;;;;;;;3.65;1.70;;;12.70;99.90;;;;;;5026083;28;20201;-66
2022/11/07 09:31:51;;;;;;;8.68;2.65;;;12.50;99.90;;;;;;5042688;28;20220;-66
2022/11/07 09:34:18;;;;;;;5.43;2.03;;;12.60;99.90;;;;;;5031020;28;20232;-66
2022/11/07 09:36:45;;;;;;;3.35;1.70;;;12.60;99.90;;;;;;5012251;28;20968;-65
2022/11/07 09:39:12;;;;;;;10.40;2.30;;;12.60;99.90;;;;;;5016200;28;20907;-66
2022/11/07 09:41:53;;;;;;;6.03;2.22;;;12.60;99.90;;;;;;5032050;28;20217;-65
2022/11/07 09:44:43;;;;;;;13.20;2.95;;;12.60;99.90;;;;;;5015197;28;20225;-65
2022/11/07 09:47:19;;;;;;;6.80;2.13;;;12.90;99.90;;;;;;5035877;28;20251;-66
2022/11/07 09:49:49;;;;;;;12.40;3.35;;;13.00;99.90;;;;;;5027001;28;20209;-66
2022/11/07 09:52:23;;;;;;;5.60;2.03;;;12.80;99.90;;;;;;5007810;28;20931;-66
2022/11/07 09:54:53;;;;;;;5.85;2.55;;;12.80;99.90;;;;;;5043860;28;20204;-65
2022/11/07 09:57:20;;;;;;;7.95;2.60;;;12.80;99.90;;;;;;5031074;28;20201;-65
2022/11/07 09:59:52;;;;;;;5.05;2.00;;;12.80;99.90;;;;;;5034189;28;20790;-66
2022/11/07 10:02:21;;;;;;;6.30;2.28;;;12.80;99.90;;;;;;5026100;28;20230;-65
2022/11/07 10:04:53;;;;;;;4.40;2.38;;;12.80;99.90;;;;;;5033957;28;20227;-66
2022/11/07 10:07:28;;;;;;;9.05;2.10;;;12.80;99.90;;;;;;5044368;28;21079;-66
2022/11/07 10:10:00;;;;;;;9.23;1.83;;;12.80;99.90;;;;;;5013759;28;20200;-66
2022/11/07 10:12:42;;;;;;;6.70;2.20;;;12.80;99.90;;;;;;5034939;28;20224;-66
2022/11/07 10:15:17;;;;;;;7.35;1.95;;;12.80;99.90;;;;;;5031153;28;20201;-66
2022/11/07 10:17:51;;;;;;;19.17;2.95;;;12.80;99.90;;;;;;5043835;28;20193;-65
2022/11/07 10:20:30;;;;;;;10.63;2.80;;;12.80;99.90;;;;;;5028674;28;20215;-65
2022/11/07 10:23:07;;;;;;;3.53;1.92;;;12.80;99.90;;;;;;5048582;28;20783;-66
2022/11/07 10:25:41;;;;;;;8.73;1.80;;;12.90;99.90;;;;;;5013548;28;20224;-66
2022/11/07 10:28:16;;;;;;;7.97;2.33;;;12.90;99.90;;;;;;5038056;28;20206;-65
2022/11/07 10:30:48;;;;;;;8.88;2.10;;;12.90;99.90;;;;;;5033596;28;20201;-66
2022/11/07 10:33:27;;;;;;;7.38;2.33;;;12.90;99.90;;;;;;5037533;28;20204;-65
2022/11/07 10:35:57;;;;;;;7.70;2.40;;;12.90;99.90;;;;;;5032540;28;20211;-65
2022/11/07 10:38:27;;;;;;;8.65;2.20;;;12.90;99.90;;;;;;5041700;28;20689;-65
2022/11/07 10:40:54;;;;;;;6.30;2.08;;;13.00;99.90;;;;;;4999297;28;20749;-65
2022/11/07 10:43:31;;;;;;;8.73;2.15;;;13.00;99.90;;;;;;5046792;28;21096;-65
2022/11/07 10:46:02;;;;;;;6.22;2.65;;;13.00;99.90;;;;;;5031699;28;20231;-65
2022/11/07 10:48:30;;;;;;;4.50;1.80;;;13.10;99.90;;;;;;5047361;28;20197;-66
2022/11/07 10:50:57;;;;;;;5.43;1.80;;;13.10;99.90;;;;;;5031384;28;20290;-65
2022/11/07 10:53:26;;;;;;;5.88;2.20;;;13.10;99.90;;;;;;5046340;28;21019;-65
2022/11/07 10:55:54;;;;;;;6.82;2.30;;;13.10;99.90;;;;;;5001311;28;20244;-66
2022/11/07 10:58:23;;;;;;;9.43;2.42;;;13.10;99.90;;;;;;5030763;28;20204;-65
2022/11/07 11:01:04;;;;;;;7.22;2.42;;;13.10;99.90;;;;;;5040460;28;20370;-66
2022/11/07 11:03:33;;;;;;;7.38;2.83;;;13.10;99.90;;;;;;5031102;28;20205;-65
2022/11/07 11:06:09;;;;;;;5.75;2.25;;;13.10;99.90;;;;;;5040390;28;20239;-66
2022/11/07 11:08:38;;;;;;;6.63;2.22;;;13.20;99.90;;;;;;5029303;28;20212;-65
2022/11/07 11:11:14;;;;;;;11.43;2.25;;;13.10;99.90;;;;;;5018542;28;20209;-65
2022/11/07 11:13:41;;;;;;;5.38;2.22;;;13.20;99.90;;;;;;5028680;28;20208;-66
2022/11/07 11:16:26;;;;;;;42.83;3.50;;;13.20;99.90;;;;;;5047387;28;20215;-65
2022/11/07 11:18:56;;;;;;;7.55;2.33;;;13.30;99.90;;;;;;5030129;28;20205;-65
2022/11/07 11:21:24;;;;;;;13.02;2.92;;;13.30;99.90;;;;;;5040428;28;20216;-66
2022/11/07 11:23:53;;;;;;;10.13;2.55;;;13.20;99.90;;;;;;5026637;28;20208;-66
2022/11/07 11:26:28;;;;;;;8.05;2.28;;;13.30;99.90;;;;;;5006535;28;24459;-66
2022/11/07 11:28:59;;;;;;;6.40;2.25;;;13.20;99.90;;;;;;5031451;28;20682;-65
2022/11/07 11:31:35;;;;;;;10.15;2.92;;;13.20;99.90;;;;;;5040769;28;20213;-67
2022/11/07 11:34:10;;;;;;;8.82;2.17;;;13.00;99.90;;;;;;5027481;28;20652;-65
2022/11/07 11:36:40;;;;;;;3.80;1.90;;;12.90;99.90;;;;;;5040125;28;20202;-66
2022/11/07 11:39:25;;;;;;;9.45;2.42;;;12.90;99.90;;;;;;5022401;28;20201;-67
2022/11/07 11:41:55;;;;;;;7.28;2.05;;;13.40;99.90;;;;;;5015677;28;20251;-66
2022/11/07 11:44:29;;;;;;;7.32;2.38;;;12.80;99.90;;;;;;5030841;28;20686;-66
2022/11/07 11:47:08;;;;;;;11.43;2.72;;;12.90;99.90;;;;;;5031667;28;20227;-67
2022/11/07 11:49:40;;;;;;;6.72;2.30;;;12.90;99.90;;;;;;5034280;28;20207;-65
2022/11/07 11:52:14;;;;;;;11.82;2.58;;;12.90;99.90;;;;;;5039724;28;20212;-65
2022/11/07 11:54:42;;;;;;;4.50;2.10;;;12.90;99.90;;;;;;5034177;28;20213;-66
2022/11/07 11:57:14;;;;;;;8.30;2.50;;;12.90;99.90;;;;;;5044232;28;20785;-68
2022/11/07 12:00:02;;;;;;;9.18;3.38;;;12.90;99.90;;;;;;5006245;28;20709;-66
2022/11/07 12:03:14;;;;;;;7.88;3.00;;;12.90;99.90;;;;;;5035697;28;20208;-65
2022/11/07 12:06:14;;;;;;;10.20;2.90;;;13.00;99.90;;;;;;4960490;28;20227;-65
2022/11/07 12:09:22;;;;;;;9.65;2.75;;;13.00;99.90;;;;;;5026380;28;20209;-66
2022/11/07 12:12:04;;;;;;;7.85;2.55;;;13.00;99.90;;;;;;4963086;28;20202;-65
2022/11/07 12:14:56;;;;;;;8.35;2.35;;;13.00;99.90;;;;;;5001335;28;20205;-65
2022/11/07 12:17:31;;;;;;;3.97;1.90;;;13.00;99.90;;;;;;5044171;28;20206;-66
2022/11/07 12:20:10;;;;;;;6.53;2.72;;;13.00;99.90;;;;;;5043181;28;20200;-66
2022/11/07 12:22:48;;;;;;;7.55;2.50;;;13.00;99.90;;;;;;5029138;28;20205;-66
2022/11/07 12:25:20;;;;;;;5.85;2.80;;;12.90;99.90;;;;;;5032358;28;20208;-66
2022/11/07 12:27:56;;;;;;;8.68;2.53;;;12.90;99.90;;;;;;5042411;28;20254;-66
2022/11/07 12:30:31;;;;;;;11.05;2.67;;;13.00;99.90;;;;;;5009734;28;20208;-66
2022/11/07 12:33:07;;;;;;;5.15;2.40;;;13.00;99.90;;;;;;5029086;28;23860;-66
2022/11/07 12:35:43;;;;;;;13.50;2.75;;;13.00;99.90;;;;;;5040880;28;20243;-66
2022/11/07 12:38:32;;;;;;;8.80;2.33;;;13.00;99.90;;;;;;5030883;28;20215;-67
2022/11/07 12:41:06;;;;;;;8.70;2.83;;;13.00;99.90;;;;;;5019663;28;20588;-66
2022/11/07 12:43:47;;;;;;;9.23;2.65;;;13.00;99.90;;;;;;5006349;28;20212;-66
2022/11/07 12:46:21;;;;;;;10.95;2.50;;;13.00;99.90;;;;;;5025739;28;21357;-66
2022/11/07 12:49:08;;;;;;;11.07;3.03;;;13.00;99.90;;;;;;5028107;28;20200;-67
2022/11/07 12:51:49;;;;;;;9.23;3.47;;;13.00;99.90;;;;;;5031618;28;20201;-65
2022/11/07 12:54:44;;;;;;;10.48;3.50;;;13.00;99.90;;;;;;5045736;28;21077;-65
2022/11/07 12:57:17;;;;;;;9.80;2.92;;;13.10;99.90;;;;;;5023757;28;20235;-66
2022/11/07 12:59:49;;;;;;;5.57;3.25;;;13.20;99.90;;;;;;5006054;28;20226;-66
2022/11/07 13:02:30;;;;;;;6.97;2.80;;;13.20;99.90;;;;;;5023420;28;20690;-65
2022/11/07 13:05:03;;;;;;;9.00;2.90;;;13.20;99.90;;;;;;5028912;28;20212;-66
2022/11/07 13:07:37;;;;;;;6.63;2.67;;;13.20;99.90;;;;;;5025202;28;20235;-65
2022/11/07 13:10:11;;;;;;;7.13;2.90;;;13.30;99.90;;;;;;5033877;28;20206;-65
2022/11/07 13:12:42;;;;;;;8.85;3.20;;;13.30;99.90;;;;;;5043480;28;20197;-64